createdAt,value
2018-06-13T00:01:13.213Z,97570.11
2018-06-13T00:03:42.920Z,97573.21
2018-06-13T00:06:12.042Z,97568.06
2018-06-13T00:08:41.734Z,97562.64
2018-06-13T00:11:10.987Z,97563.81
2018-06-13T00:13:40.159Z,97562.53
2018-06-13T00:16:09.275Z,97557.86
2018-06-13T00:18:38.354Z,97561.89
2018-06-13T00:21:07.535Z,97565.84
2018-06-13T00:23:36.648Z,97562.98
2018-06-13T00:26:05.756Z,97566.19
2018-06-13T00:28:37.223Z,97565.62
2018-06-13T00:31:06.427Z,97570.90
2018-06-13T00:33:35.543Z,97577.04
2018-06-13T00:36:05.345Z,97576.48
2018-06-13T00:38:34.455Z,97583.52
2018-06-13T00:41:03.586Z,97581.72
2018-06-13T00:43:33.399Z,97582.83
2018-06-13T00:46:02.519Z,97583.40
2018-06-13T00:48:32.269Z,97584.80
2018-06-13T00:51:01.439Z,97587.78
2018-06-13T00:53:30.549Z,97582.83
2018-06-13T00:56:16.522Z,97585.52
2018-06-13T00:58:45.642Z,97585.09
2018-06-13T01:01:14.792Z,97589.49
2018-06-13T01:03:44.567Z,97573.62
2018-06-13T01:06:13.719Z,97582.52
2018-06-13T01:08:42.839Z,97579.63
2018-06-13T01:11:12.387Z,97586.30
2018-06-13T01:13:41.543Z,97581.92
2018-06-13T01:16:10.693Z,97585.47
2018-06-13T01:18:39.874Z,97588.86
2018-06-13T01:21:09.058Z,97590.02
2018-06-13T01:23:38.151Z,97589.60
2018-06-13T01:26:07.300Z,97587.82
2018-06-13T01:28:36.579Z,97590.52
2018-06-13T01:31:05.667Z,97584.69
2018-06-13T01:33:34.790Z,97583.98
2018-06-13T01:36:04.581Z,97584.42
2018-06-13T01:38:34.290Z,97583.34
2018-06-13T01:41:03.476Z,97582.91
2018-06-13T01:43:33.022Z,97587.96
2018-06-13T01:46:02.152Z,97587.23
2018-06-13T01:48:31.246Z,97582.99
2018-06-13T01:51:00.524Z,97581.27
2018-06-13T01:53:30.715Z,97581.92
2018-06-13T01:55:59.900Z,97585.13
2018-06-13T01:58:29.358Z,97585.33
2018-06-13T02:00:58.478Z,97583.71
2018-06-13T02:03:27.599Z,97587.96
2018-06-13T02:05:56.750Z,97590.89
2018-06-13T02:08:25.851Z,97592.84
2018-06-13T02:10:55.027Z,97592.13
2018-06-13T02:13:28.172Z,97587.69
2018-06-13T02:15:59.715Z,97589.58
2018-06-13T02:18:28.810Z,97587.61
2018-06-13T02:20:57.907Z,97585.73
2018-06-13T02:23:27.651Z,97584.53
2018-06-13T02:25:56.763Z,97589.44
2018-06-13T02:28:25.881Z,97590.22
2018-06-13T02:30:54.530Z,97592.64
2018-06-13T02:33:23.647Z,97593.27
2018-06-13T02:35:52.751Z,97594.39
2018-06-13T02:38:21.867Z,97593.05
2018-06-13T02:40:51.543Z,97596.38
2018-06-13T02:43:20.780Z,97597.82
2018-06-13T02:45:49.938Z,97604.66
2018-06-13T02:48:19.042Z,97608.34
2018-06-13T02:50:48.544Z,97607.89
2018-06-13T02:53:17.703Z,97611.44
2018-06-13T02:55:46.836Z,97610.09
2018-06-13T02:58:15.993Z,97613.98
2018-06-13T03:00:45.183Z,97614.76
2018-06-13T03:03:14.291Z,97614.76
2018-06-13T03:05:45.742Z,97619.02
2018-06-13T03:08:14.837Z,97614.34
2018-06-13T03:10:44.440Z,97623.70
2018-06-13T03:13:17.133Z,97625.18
2018-06-13T03:15:50.904Z,97627.23
2018-06-13T03:18:20.086Z,97626.61
2018-06-13T03:20:49.394Z,97627.81
2018-06-13T03:23:18.479Z,97633.50
2018-06-13T03:25:47.676Z,97630.02
2018-06-13T03:28:17.268Z,97636.91
2018-06-13T03:30:47.637Z,97632.57
2018-06-13T03:33:19.842Z,97633.07
2018-06-13T03:35:50.679Z,97643.38
2018-06-13T03:38:19.768Z,97634.39
2018-06-13T03:40:48.860Z,97640.70
2018-06-13T03:43:18.263Z,97642.70
2018-06-13T03:45:48.446Z,97641.70
2018-06-13T03:48:17.650Z,97634.12
2018-06-13T03:50:46.967Z,97636.17
2018-06-13T03:53:16.066Z,97643.05
2018-06-13T03:55:45.171Z,97651.85
2018-06-13T03:58:14.316Z,97653.63
2018-06-13T04:00:43.412Z,97658.23
2018-06-13T04:03:13.026Z,97659.74
2018-06-13T04:05:42.986Z,97663.08
2018-06-13T04:08:13.033Z,97665.47
2018-06-13T04:10:42.539Z,97669.22
2018-06-13T04:13:11.674Z,97669.11
2018-06-13T04:15:40.771Z,97663.08
2018-06-13T04:18:10.275Z,97668.45
2018-06-13T04:20:42.136Z,97658.82
2018-06-13T04:23:11.698Z,97670.20
2018-06-13T04:25:41.834Z,97669.00
2018-06-13T04:28:11.094Z,97674.81
2018-06-13T04:30:40.212Z,97670.83
2018-06-13T04:33:09.331Z,97676.44
2018-06-13T04:35:42.174Z,97673.27
2018-06-13T04:38:13.717Z,97681.63
2018-06-13T04:40:45.386Z,97679.65
2018-06-13T04:43:15.258Z,97674.81
2018-06-13T04:45:44.354Z,97675.23
2018-06-13T04:48:13.499Z,97679.34
2018-06-13T04:50:43.190Z,97674.97
2018-06-13T04:53:12.731Z,97679.65
2018-06-13T04:55:43.130Z,97677.95
2018-06-13T04:58:13.137Z,97684.49
2018-06-13T05:00:42.238Z,97685.97
2018-06-13T05:03:11.354Z,97687.83
2018-06-13T05:05:40.535Z,97693.14
2018-06-13T05:08:11.212Z,97692.16
2018-06-13T05:10:41.096Z,97699.33
2018-06-13T05:13:11.486Z,97701.11
2018-06-13T05:15:42.090Z,97707.16
2018-06-13T05:18:12.535Z,97703.55
2018-06-13T05:20:42.265Z,97707.51
2018-06-13T05:23:12.288Z,97708.31
2018-06-13T05:25:41.936Z,97707.81
2018-06-13T05:28:12.102Z,97712.34
2018-06-13T05:30:42.191Z,97710.88
2018-06-13T05:33:11.106Z,97715.05
2018-06-13T05:35:40.310Z,97720.40
2018-06-13T05:38:09.669Z,97718.06
2018-06-13T05:40:39.262Z,97725.16
2018-06-13T05:43:09.627Z,97723.30
2018-06-13T05:45:38.799Z,97731.33
2018-06-13T05:48:10.549Z,97725.63
2018-06-13T05:50:39.979Z,97735.78
2018-06-13T05:53:09.078Z,97741.12
2018-06-13T05:55:38.219Z,97748.95
2018-06-13T05:58:07.870Z,97740.78
2018-06-13T06:00:41.446Z,97751.59
2018-06-13T06:03:10.570Z,97745.55
2018-06-13T06:05:41.025Z,97735.47
2018-06-13T06:08:10.181Z,97744.84
2018-06-13T06:10:40.140Z,97737.02
2018-06-13T06:13:09.610Z,97748.05
2018-06-13T06:15:38.702Z,97748.20
2018-06-13T06:18:07.822Z,97754.44
2018-06-13T06:20:38.480Z,97760.13
2018-06-13T06:23:09.994Z,97762.34
2018-06-13T06:25:39.511Z,97764.98
2018-06-13T06:28:08.603Z,97761.36
2018-06-13T06:30:37.711Z,97760.56
2018-06-13T06:33:06.832Z,97765.70
2018-06-13T06:35:35.951Z,97762.09
2018-06-13T06:38:05.539Z,97769.47
2018-06-13T06:40:34.699Z,97771.49
2018-06-13T06:43:03.802Z,97766.07
2018-06-13T06:45:32.947Z,97769.91
2018-06-13T06:48:02.079Z,97773.86
2018-06-13T06:50:31.747Z,97777.70
2018-06-13T06:53:01.259Z,97775.27
2018-06-13T06:55:30.624Z,97774.84
2018-06-13T06:57:59.709Z,97785.64
2018-06-13T07:00:31.582Z,97771.97
2018-06-13T07:03:01.004Z,97782.05
2018-06-13T07:05:30.110Z,97777.82
2018-06-13T07:07:59.211Z,97780.69
2018-06-13T07:10:28.407Z,97780.01
2018-06-13T07:12:57.500Z,97793.61
2018-06-13T07:15:26.600Z,97792.63
2018-06-13T07:17:58.946Z,97793.03
2018-06-13T07:20:28.070Z,97790.69
2018-06-13T07:22:57.171Z,97792.59
2018-06-13T07:25:26.533Z,97793.34
2018-06-13T07:27:55.607Z,97796.63
2018-06-13T07:30:24.690Z,97800.55
2018-06-13T07:32:53.793Z,97799.19
2018-06-13T07:35:23.439Z,97809.25
2018-06-13T07:37:52.542Z,97813.89
2018-06-13T07:40:21.674Z,97815.16
2018-06-13T07:42:50.874Z,97815.45
2018-06-13T07:45:20.055Z,97812.59
2018-06-13T07:47:49.176Z,97811.55
2018-06-13T07:50:18.270Z,97812.34
2018-06-13T07:52:47.363Z,97817.98
2018-06-13T07:55:16.568Z,97812.46
2018-06-13T07:57:46.259Z,97819.25
2018-06-13T08:00:15.346Z,97816.15
2018-06-13T08:02:44.473Z,97820.14
2018-06-13T08:05:13.563Z,97815.34
2018-06-13T08:07:42.671Z,97815.63
2018-06-13T08:10:11.778Z,97813.56
2018-06-13T08:12:40.875Z,97817.86
2018-06-13T08:15:09.972Z,97821.30
2018-06-13T08:17:40.675Z,97821.63
2018-06-13T08:20:09.791Z,97817.52
2018-06-13T08:22:38.900Z,97825.98
2018-06-13T08:25:08.011Z,97824.51
2018-06-13T08:27:49.058Z,97817.98
2018-06-13T08:30:18.180Z,97820.22
2018-06-13T08:32:47.463Z,97825.51
2018-06-13T08:35:16.566Z,97825.18
2018-06-13T08:37:45.686Z,97824.11
2018-06-13T08:40:14.765Z,97825.05
2018-06-13T08:42:43.886Z,97831.56
2018-06-13T08:45:13.256Z,97822.16
2018-06-13T08:47:42.347Z,97829.61
2018-06-13T08:50:13.152Z,97848.66
2018-06-13T08:52:42.242Z,97833.48
2018-06-13T08:55:11.331Z,97838.58
2018-06-13T08:57:40.463Z,97843.86
2018-06-13T09:00:09.606Z,97836.20
2018-06-13T09:02:38.879Z,97840.65
2018-06-13T09:05:08.570Z,97841.66
2018-06-13T09:07:37.772Z,97838.00
2018-06-13T09:10:07.407Z,97847.81
2018-06-13T09:12:36.747Z,97847.45
2018-06-13T09:15:05.920Z,97861.45
2018-06-13T09:17:35.543Z,97856.70
2018-06-13T09:20:04.663Z,97864.84
2018-06-13T09:22:33.810Z,97854.67
2018-06-13T09:25:02.954Z,97864.09
2018-06-13T09:27:32.051Z,97863.73
2018-06-13T09:30:01.244Z,97868.84
2018-06-13T09:32:30.371Z,97869.98
2018-06-13T09:34:59.455Z,97869.77
2018-06-13T09:37:28.612Z,97869.30
2018-06-13T09:39:57.691Z,97868.69
2018-06-13T09:42:26.782Z,97862.16
2018-06-13T09:44:55.878Z,97859.13
2018-06-13T09:47:25.043Z,97867.56
2018-06-13T09:49:54.183Z,97872.89
2018-06-13T09:52:23.318Z,97868.70
2018-06-13T09:54:53.421Z,97870.08
2018-06-13T09:57:22.480Z,97875.80
2018-06-13T09:59:56.862Z,97875.89
2018-06-13T10:02:31.271Z,97884.56
2018-06-13T10:05:00.360Z,97887.20
2018-06-13T10:07:29.436Z,97887.46
2018-06-13T10:09:59.343Z,97890.23
2018-06-13T10:12:28.495Z,97886.11
2018-06-13T10:14:57.662Z,97887.48
2018-06-13T10:17:26.753Z,97882.13
2018-06-13T10:19:56.250Z,97883.33
2018-06-13T10:22:25.561Z,97884.09
2018-06-13T10:24:54.668Z,97883.95
2018-06-13T10:27:28.902Z,97892.94
2018-06-13T10:29:57.967Z,97897.47
2018-06-13T10:32:27.315Z,97896.30
2018-06-13T10:34:56.835Z,97901.36
2018-06-13T10:37:26.583Z,97907.59
2018-06-13T10:39:55.722Z,97904.84
2018-06-13T10:42:24.831Z,97906.09
2018-06-13T10:44:54.055Z,97909.86
2018-06-13T10:47:23.176Z,97911.77
2018-06-13T10:49:52.268Z,97913.66
2018-06-13T10:52:21.378Z,97911.52
2018-06-13T10:54:50.514Z,97918.71
2018-06-13T10:57:19.374Z,97917.59
2018-06-13T10:59:48.476Z,97921.65
2018-06-13T11:02:17.593Z,97918.30
2018-06-13T11:04:46.732Z,97927.47
2018-06-13T11:07:16.391Z,97924.00
2018-06-13T11:09:46.632Z,97923.31
2018-06-13T11:12:15.719Z,97925.34
2018-06-13T11:14:44.787Z,97924.38
2018-06-13T11:17:13.943Z,97929.23
2018-06-13T11:19:43.473Z,97929.95
2018-06-13T11:22:12.813Z,97924.23
2018-06-13T11:24:42.232Z,97927.34
2018-06-13T11:27:11.367Z,97925.80
2018-06-13T11:29:40.950Z,97925.91
2018-06-13T11:32:10.049Z,97921.59
2018-06-13T11:34:39.150Z,97931.51
2018-06-13T11:37:08.230Z,97933.72
2018-06-13T11:39:37.487Z,97938.70
2018-06-13T11:42:06.607Z,97932.98
2018-06-13T11:44:35.747Z,97931.94
2018-06-13T11:47:04.919Z,97933.12
2018-06-13T11:49:34.076Z,97934.01
2018-06-13T11:52:03.735Z,97932.74
2018-06-13T11:54:33.544Z,97928.76
2018-06-13T11:57:03.651Z,97928.77
2018-06-13T11:59:32.791Z,97923.65
2018-06-13T12:02:02.177Z,97921.63
2018-06-13T12:04:31.234Z,97925.77
2018-06-13T12:07:00.311Z,97927.75
2018-06-13T12:09:30.100Z,97926.23
2018-06-13T12:11:59.951Z,97918.82
2018-06-13T12:14:29.247Z,97912.01
2018-06-13T12:16:58.347Z,97921.20
2018-06-13T12:19:27.487Z,97921.03
2018-06-13T12:21:56.726Z,97914.80
2018-06-13T12:24:25.819Z,97913.30
2018-06-13T12:26:54.955Z,97910.95
2018-06-13T12:29:24.051Z,97904.67
2018-06-13T12:31:53.495Z,97911.07
2018-06-13T12:34:22.718Z,97921.72
2018-06-13T12:36:51.879Z,97917.27
2018-06-13T12:39:21.355Z,97910.53
2018-06-13T12:41:52.261Z,97920.36
2018-06-13T12:44:21.423Z,97938.03
2018-06-13T12:46:51.351Z,97936.25
2018-06-13T12:49:20.706Z,97953.23
2018-06-13T12:51:49.862Z,97950.86
2018-06-13T12:54:19.058Z,97950.55
2018-06-13T12:56:48.379Z,97949.09
2018-06-13T12:59:17.731Z,97952.53
2018-06-13T13:01:47.255Z,97948.30
2018-06-13T13:04:16.335Z,97953.70
2018-06-13T13:06:45.612Z,97955.26
2018-06-13T13:09:14.723Z,97958.95
2018-06-13T13:11:43.972Z,97962.19
2018-06-13T13:14:13.507Z,97961.56
2018-06-13T13:16:42.619Z,97961.78
2018-06-13T13:19:11.707Z,97961.56
2018-06-13T13:21:40.786Z,97961.65
2018-06-13T13:24:10.016Z,97968.60
2018-06-13T13:26:39.150Z,97964.08
2018-06-13T13:29:08.298Z,97968.94
2018-06-13T13:31:37.418Z,97973.63
2018-06-13T13:34:07.283Z,97967.74
2018-06-13T13:36:37.195Z,97960.52
2018-06-13T13:39:09.557Z,97958.95
2018-06-13T13:41:40.015Z,97964.72
2018-06-13T13:44:09.799Z,97964.13
2018-06-13T13:46:38.883Z,97957.90
2018-06-13T13:49:07.998Z,97964.14
2018-06-13T13:51:37.164Z,97956.55
2018-06-13T13:54:06.400Z,97958.16
2018-06-13T13:56:35.515Z,97957.67
2018-06-13T13:59:04.815Z,97966.39
2018-06-13T14:01:34.735Z,97970.12
2018-06-13T14:04:03.869Z,97969.74
2018-06-13T14:06:33.762Z,97972.24
2018-06-13T14:09:02.876Z,97979.98
2018-06-13T14:11:31.987Z,97987.73
2018-06-13T14:14:01.086Z,97985.32
2018-06-13T14:16:30.163Z,97983.68
2018-06-13T14:18:59.275Z,97988.72
2018-06-13T14:21:28.691Z,97992.64
2018-06-13T14:23:57.775Z,97987.08
2018-06-13T14:26:27.119Z,97995.14
2018-06-13T14:28:56.247Z,97989.55
2018-06-13T14:31:25.336Z,97982.44
2018-06-13T14:33:54.547Z,97989.07
2018-06-13T14:36:23.631Z,97985.17
2018-06-13T14:38:52.714Z,97983.45
2018-06-13T14:41:21.820Z,97982.27
2018-06-13T14:43:50.902Z,97988.16
2018-06-13T14:46:19.981Z,97982.08
2018-06-13T14:48:49.086Z,97991.95
2018-06-13T14:51:18.218Z,97987.80
2018-06-13T14:53:47.362Z,97988.78
2018-06-13T14:56:22.018Z,97986.30
2018-06-13T14:58:51.119Z,97996.23
2018-06-13T15:01:20.210Z,97989.27
2018-06-13T15:03:49.327Z,97978.86
2018-06-13T15:06:18.468Z,97987.20
2018-06-13T15:08:47.558Z,97980.33
2018-06-13T15:11:16.659Z,97984.91
2018-06-13T15:13:45.779Z,97985.25
2018-06-13T15:16:14.865Z,97986.83
2018-06-13T15:18:44.019Z,97980.76
2018-06-13T15:21:13.156Z,97990.36
2018-06-13T15:23:42.267Z,97991.66
2018-06-13T15:26:11.374Z,97986.08
2018-06-13T15:28:40.525Z,97985.19
2018-06-13T15:31:09.603Z,97998.27
2018-06-13T15:33:40.468Z,97995.81
2018-06-13T15:36:09.645Z,97999.31
2018-06-13T15:38:40.334Z,98000.31
2018-06-13T15:41:09.874Z,98004.44
2018-06-13T15:43:39.059Z,98008.65
2018-06-13T15:46:08.287Z,98009.95
2018-06-13T15:48:37.368Z,98010.31
2018-06-13T15:51:06.439Z,98011.86
2018-06-13T15:53:35.552Z,98012.56
2018-06-13T15:56:04.902Z,98018.52
2018-06-13T15:58:34.471Z,98010.30
2018-06-13T16:01:03.483Z,98026.37
2018-06-13T16:03:32.566Z,98020.50
2018-06-13T16:06:02.326Z,98019.66
2018-06-13T16:08:31.403Z,98022.62
2018-06-13T16:11:00.488Z,98020.96
2018-06-13T16:13:29.581Z,98023.78
2018-06-13T16:15:58.665Z,98029.56
2018-06-13T16:18:27.802Z,98032.39
2018-06-13T16:20:56.898Z,98027.16
2018-06-13T16:23:26.043Z,98038.11
2018-06-13T16:25:55.329Z,98036.48
2018-06-13T16:28:24.455Z,98037.14
2018-06-13T16:30:53.598Z,98041.16
2018-06-13T16:33:22.747Z,98050.47
2018-06-13T16:35:51.897Z,98046.67
2018-06-13T16:38:21.014Z,98049.59
2018-06-13T16:40:50.139Z,98051.27
2018-06-13T16:43:19.239Z,98055.02
2018-06-13T16:45:49.984Z,98060.05
2018-06-13T16:48:19.074Z,98058.34
2018-06-13T16:50:59.220Z,98059.77
2018-06-13T16:53:58.096Z,98052.09
2018-06-13T16:56:27.491Z,98054.31
2018-06-13T16:58:57.112Z,98061.71
2018-06-13T17:01:26.279Z,98063.09
2018-06-13T17:03:55.763Z,98068.17
2018-06-13T17:06:26.071Z,98071.27
2018-06-13T17:08:55.470Z,98077.05
2018-06-13T17:11:26.462Z,98074.94
2018-06-13T17:13:55.976Z,98073.59
2018-06-13T17:16:25.150Z,98078.91
2018-06-13T17:18:54.818Z,98088.23
2018-06-13T17:21:24.264Z,98093.47
2018-06-13T17:23:53.426Z,98087.16
2018-06-13T17:26:22.532Z,98090.34
2018-06-13T17:28:51.618Z,98090.90
2018-06-13T17:31:20.708Z,98103.66
2018-06-13T17:33:49.844Z,98101.42
2018-06-13T17:36:18.711Z,98116.45
2018-06-13T17:38:48.144Z,98108.55
2018-06-13T17:41:17.267Z,98106.50
2018-06-13T17:43:46.373Z,98108.67
2018-06-13T17:46:16.031Z,98106.00
2018-06-13T17:48:45.219Z,98102.70
2018-06-13T17:51:15.159Z,98106.44
2018-06-13T17:53:44.595Z,98100.79
2018-06-13T17:56:13.967Z,98108.17
2018-06-13T17:58:43.261Z,98107.06
2018-06-13T18:01:12.455Z,98105.06
2018-06-13T18:03:43.475Z,98111.80
2018-06-13T18:06:13.001Z,98107.42
2018-06-13T18:08:42.145Z,98114.55
2018-06-13T18:11:11.231Z,98119.20
2018-06-13T18:13:40.351Z,98120.41
2018-06-13T18:16:09.447Z,98125.71
2018-06-13T18:18:40.187Z,98122.67
2018-06-13T18:21:09.296Z,98129.16
2018-06-13T18:23:38.382Z,98129.16
2018-06-13T18:26:07.511Z,98133.59
2018-06-13T18:28:36.589Z,98133.17
2018-06-13T18:31:05.710Z,98135.40
2018-06-13T18:33:34.950Z,98131.77
2018-06-13T18:36:04.046Z,98129.28
2018-06-13T18:38:33.157Z,98130.92
2018-06-13T18:41:02.298Z,98130.52
2018-06-13T18:43:31.546Z,98133.78
2018-06-13T18:46:00.437Z,98136.08
2018-06-13T18:48:31.091Z,98143.98
2018-06-13T18:51:01.183Z,98153.11
2018-06-13T18:53:32.239Z,98151.33
2018-06-13T18:56:06.139Z,98148.92
2018-06-13T18:58:39.497Z,98151.19
2018-06-13T19:01:13.384Z,98153.83
2018-06-13T19:03:48.378Z,98149.98
2018-06-13T19:06:19.936Z,98155.74
2018-06-13T19:08:54.302Z,98152.49
2018-06-13T19:11:27.697Z,98157.77
2018-06-13T19:14:00.426Z,98165.11
2018-06-13T19:16:32.334Z,98176.50
2018-06-13T19:19:06.450Z,98181.36
2018-06-13T19:21:38.987Z,98178.36
2018-06-13T19:24:12.192Z,98185.32
2018-06-13T19:26:42.819Z,98192.73
2018-06-13T19:29:16.946Z,98198.84
2018-06-13T19:31:48.567Z,98200.35
2018-06-13T19:34:22.610Z,98203.58
2018-06-13T19:36:51.707Z,98204.55
2018-06-13T19:39:21.354Z,98205.25
2018-06-13T19:41:50.378Z,98210.25
2018-06-13T19:44:19.524Z,98209.67
2018-06-13T19:46:48.608Z,98220.34
2018-06-13T19:49:17.667Z,98221.55
2018-06-13T19:51:47.017Z,98222.24
2018-06-13T19:54:22.147Z,98228.80
2018-06-13T19:56:51.243Z,98233.00
2018-06-13T19:59:20.345Z,98236.56
2018-06-13T20:01:53.195Z,98241.48
2018-06-13T20:04:27.593Z,98242.47
2018-06-13T20:06:56.693Z,98242.08
2018-06-13T20:09:26.129Z,98245.31
2018-06-13T20:11:57.819Z,98245.81
2018-06-13T20:14:32.254Z,98243.92
2018-06-13T20:17:06.610Z,98253.75
2018-06-13T20:19:37.495Z,98243.23
2018-06-13T20:22:06.583Z,98248.05
2018-06-13T20:24:35.747Z,98247.45
2018-06-13T20:27:10.040Z,98248.05
2018-06-13T20:31:47.379Z,98247.32
2018-06-13T20:34:16.541Z,98260.47
2018-06-13T20:36:45.608Z,98263.03
2018-06-13T20:39:14.703Z,98266.88
2018-06-13T20:41:43.782Z,98272.14
2018-06-13T20:44:13.127Z,98259.83
2018-06-13T20:46:42.248Z,98265.78
2018-06-13T20:49:11.319Z,98263.80
2018-06-13T20:51:40.414Z,98256.14
2018-06-13T20:54:09.535Z,98261.94
2018-06-13T20:56:38.643Z,98264.67
2018-06-13T20:59:07.703Z,98263.91
2018-06-13T21:01:36.866Z,98263.22
2018-06-13T21:04:05.951Z,98262.08
2018-06-13T21:06:35.035Z,98266.20
2018-06-13T21:09:06.419Z,98262.95
2018-06-13T21:11:35.215Z,98261.66
2018-06-13T21:14:04.699Z,98257.51
2018-06-13T21:16:33.830Z,98259.93
2018-06-13T21:19:02.981Z,98257.06
2018-06-13T21:21:32.221Z,98268.09
2018-06-13T21:24:02.290Z,98267.72
2018-06-13T21:26:31.471Z,98273.84
2018-06-13T21:29:01.375Z,98270.47
2018-06-13T21:31:30.248Z,98270.80
2018-06-13T21:33:59.350Z,98265.81
2018-06-13T21:36:28.434Z,98257.95
2018-06-13T21:38:58.015Z,98256.39
2018-06-13T21:41:27.095Z,98254.93
2018-06-13T21:43:56.167Z,98255.02
2018-06-13T21:46:25.636Z,98252.45
2018-06-13T21:48:55.666Z,98244.86
2018-06-13T21:51:24.430Z,98246.31
2018-06-13T21:53:53.712Z,98251.72
2018-06-13T21:56:22.852Z,98255.98
2018-06-13T21:58:51.971Z,98261.38
2018-06-13T22:01:21.966Z,98250.27
2018-06-13T22:03:51.627Z,98247.19
2018-06-13T22:06:21.559Z,98247.59
2018-06-13T22:08:50.804Z,98252.41
2018-06-13T22:11:20.717Z,98253.83
2018-06-13T22:13:51.380Z,98254.23
2018-06-13T22:16:21.255Z,98255.80
2018-06-13T22:18:50.386Z,98254.33
2018-06-13T22:21:21.266Z,98251.87
2018-06-13T22:23:50.409Z,98251.87
2018-06-13T22:26:19.431Z,98251.00
2018-06-13T22:28:48.531Z,98252.28
2018-06-13T22:31:17.607Z,98257.40
2018-06-13T22:33:46.694Z,98260.16
2018-06-13T22:36:15.815Z,98255.66
2018-06-13T22:38:44.920Z,98251.73
2018-06-13T22:41:14.006Z,98252.41
2018-06-13T22:43:44.763Z,98248.95
2018-06-13T22:46:13.858Z,98248.95
2018-06-13T22:48:42.957Z,98244.78
2018-06-13T22:51:12.058Z,98250.63
2018-06-13T22:53:41.146Z,98243.64
2018-06-13T22:56:10.249Z,98256.48
2018-06-13T22:58:39.387Z,98252.83
2018-06-13T23:01:09.823Z,98249.77
2018-06-13T23:03:40.171Z,98250.18
2018-06-13T23:06:11.250Z,98253.06
2018-06-13T23:08:40.567Z,98255.21
2018-06-13T23:11:09.754Z,98255.67
2018-06-13T23:13:38.911Z,98260.52
2018-06-13T23:16:08.015Z,98262.58
2018-06-13T23:18:36.877Z,98264.36
2018-06-13T23:21:05.955Z,98259.64
2018-06-13T23:23:35.067Z,98255.80
2018-06-13T23:26:04.179Z,98251.14
2018-06-13T23:28:33.341Z,98249.68
2018-06-13T23:31:02.492Z,98246.65
2018-06-13T23:33:31.569Z,98243.00
2018-06-13T23:36:00.691Z,98247.61
2018-06-13T23:38:30.512Z,98245.56
2018-06-13T23:40:59.635Z,98247.70
2018-06-13T23:43:28.737Z,98246.34
2018-06-13T23:45:57.833Z,98242.72
2018-06-13T23:48:26.910Z,98235.19
2018-06-13T23:50:55.994Z,98230.61
2018-06-13T23:53:25.111Z,98232.39
2018-06-13T23:55:54.198Z,98227.64
2018-06-13T23:58:23.294Z,98229.61
